createdAt,value
2018-04-22T00:02:35.183Z,58.62
2018-04-22T00:05:38.502Z,59.49
2018-04-22T00:08:41.772Z,58.31
2018-04-22T00:11:45.032Z,58.75
2018-04-22T00:15:00.444Z,59.25
2018-04-22T00:25:14.188Z,58.72
2018-04-22T00:35:30.084Z,58.21
2018-04-22T00:38:41.487Z,57.81
2018-04-22T00:41:45.301Z,59.43
2018-04-22T00:44:48.807Z,60.77
2018-04-22T00:47:57.664Z,61.36
2018-04-22T00:51:25.472Z,62.11
2018-04-22T00:58:00.350Z,61.99
2018-04-22T01:04:51.217Z,62.94
2018-04-22T01:08:07.482Z,62.97
2018-04-22T01:21:41.995Z,63.84
2018-04-22T01:31:53.150Z,65.01
2018-04-22T01:34:56.784Z,65.34
2018-04-22T01:38:00.345Z,65.15
2018-04-22T01:41:05.866Z,65.84
2018-04-22T01:54:55.069Z,66.73
2018-04-22T02:01:26.777Z,67.09
2018-04-22T02:04:52.492Z,67.01
2018-04-22T02:08:00.215Z,66.73
2018-04-22T02:17:59.976Z,67.65
2018-04-22T02:28:10.816Z,67.77
2018-04-22T02:35:05.082Z,67.29
2018-04-22T02:38:13.603Z,67.24
2018-04-22T02:48:26.325Z,68.45
2018-04-22T02:51:33.364Z,69.11
2018-04-22T02:54:40.646Z,70.22
2018-04-22T03:04:54.510Z,70.12
2018-04-22T03:08:07.912Z,68.87
2018-04-22T03:14:40.243Z,70.06
2018-04-22T03:17:48.287Z,70.59
2018-04-22T03:20:51.814Z,70.70
2018-04-22T03:24:01.652Z,70.79
2018-04-22T03:37:40.850Z,70.07
2018-04-22T03:40:44.235Z,69.91
2018-04-22T03:51:01.655Z,69.73
2018-04-22T03:57:44.379Z,69.75
2018-04-22T04:11:16.568Z,70.22
2018-04-22T04:18:08.152Z,68.75
2018-04-22T04:21:28.037Z,68.20
2018-04-22T04:28:18.961Z,67.05
2018-04-22T04:34:56.675Z,66.47
2018-04-22T04:38:22.656Z,66.43
2018-04-22T04:41:33.928Z,65.80
2018-04-22T04:44:37.315Z,65.97
2018-04-22T04:48:04.820Z,66.07
2018-04-22T04:51:25.171Z,65.85
2018-04-22T05:04:53.505Z,64.86
2018-04-22T05:08:15.819Z,64.83
2018-04-22T05:11:37.745Z,64.40
2018-04-22T05:25:11.511Z,63.53
2018-04-22T05:28:19.958Z,63.45
2018-04-22T05:45:15.025Z,62.63
2018-04-22T05:48:31.304Z,62.25
2018-04-22T05:51:45.724Z,62.48
2018-04-22T05:54:52.266Z,62.75
2018-04-22T05:58:08.368Z,62.52
2018-04-22T06:15:23.236Z,62.70
2018-04-22T06:18:32.850Z,62.97
2018-04-22T06:28:53.575Z,61.82
2018-04-22T06:39:08.773Z,61.07
2018-04-22T06:42:20.087Z,60.88
2018-04-22T06:45:25.582Z,59.97
2018-04-22T06:52:00.850Z,59.62
2018-04-22T06:58:44.360Z,59.81
2018-04-22T07:01:57.517Z,59.42
2018-04-22T07:05:00.965Z,59.03
2018-04-22T07:08:18.586Z,58.57
2018-04-22T07:11:26.998Z,57.51
2018-04-22T07:21:38.828Z,56.35
2018-04-22T07:24:47.667Z,56.46
2018-04-22T07:28:15.201Z,56.37
2018-04-22T07:31:31.335Z,55.93
2018-04-22T07:38:07.319Z,55.09
2018-04-22T07:41:18.187Z,53.04
2018-04-22T07:44:21.649Z,53.30
2018-04-22T07:51:03.880Z,53.07
2018-04-22T07:57:42.925Z,52.15
2018-04-22T08:01:10.019Z,51.15
2018-04-22T08:18:06.790Z,49.68
2018-04-22T08:21:21.338Z,50.67
2018-04-22T08:24:44.745Z,50.85
2018-04-22T08:42:04.093Z,49.67
2018-04-22T08:45:27.624Z,49.20
2018-04-22T08:48:33.142Z,49.37
2018-04-22T08:55:09.427Z,48.06
2018-04-22T08:59:15.959Z,47.90
2018-04-22T09:02:19.116Z,50.22
2018-04-22T09:05:22.400Z,46.96
2018-04-22T09:08:25.657Z,47.01
2018-04-22T09:11:30.489Z,47.38
2018-04-22T09:14:34.299Z,45.94
2018-04-22T09:17:37.577Z,46.37
2018-04-22T09:20:41.956Z,46.76
2018-04-22T09:23:45.184Z,45.82
2018-04-22T09:26:48.471Z,44.72
2018-04-22T09:29:51.692Z,44.82
2018-04-22T09:32:55.063Z,42.43
2018-04-22T09:35:58.351Z,42.31
2018-04-22T09:39:01.653Z,41.87
2018-04-22T09:42:05.044Z,42.76
2018-04-22T09:45:08.348Z,41.28
2018-04-22T09:48:11.539Z,42.20
2018-04-22T09:54:46.985Z,43.19
2018-04-22T09:57:50.332Z,42.77
2018-04-22T10:00:57.625Z,42.41
2018-04-22T10:04:01.053Z,41.42
2018-04-22T10:07:04.378Z,42.03
2018-04-22T10:10:08.773Z,41.97
2018-04-22T10:13:12.021Z,41.50
2018-04-22T10:16:15.421Z,41.48
2018-04-22T10:19:19.744Z,41.97
2018-04-22T10:22:24.044Z,40.74
2018-04-22T10:25:27.434Z,40.41
2018-04-22T10:28:30.675Z,41.11
2018-04-22T10:31:34.541Z,40.71
2018-04-22T10:34:37.880Z,40.90
2018-04-22T10:37:41.277Z,40.96
2018-04-22T10:40:44.725Z,38.85
2018-04-22T10:43:48.181Z,40.15
2018-04-22T10:46:51.556Z,38.60
2018-04-22T10:49:54.885Z,39.81
2018-04-22T10:52:58.111Z,37.35
2018-04-22T10:56:01.364Z,38.46
2018-04-22T10:59:06.538Z,39.45
2018-04-22T11:02:09.901Z,38.81
2018-04-22T11:08:09.631Z,37.92
2018-04-22T11:11:13.043Z,37.35
2018-04-22T11:14:16.372Z,36.90
2018-04-22T11:17:19.631Z,37.16
2018-04-22T11:20:23.032Z,37.83
2018-04-22T11:23:26.320Z,37.27
2018-04-22T11:26:29.578Z,35.98
2018-04-22T11:29:32.900Z,37.78
2018-04-22T11:32:37.445Z,36.88
2018-04-22T11:35:40.852Z,35.72
2018-04-22T11:38:44.198Z,35.91
2018-04-22T11:41:47.386Z,34.63
2018-04-22T11:44:50.758Z,36.26
2018-04-22T11:47:54.027Z,36.35
2018-04-22T11:50:57.353Z,34.37
2018-04-22T11:54:00.528Z,33.43
2018-04-22T11:57:04.621Z,34.33
2018-04-22T12:00:07.836Z,31.89
2018-04-22T12:03:11.202Z,33.13
2018-04-22T12:06:14.542Z,32.22
2018-04-22T12:09:17.830Z,32.89
2018-04-22T12:12:21.130Z,32.29
2018-04-22T12:15:24.413Z,31.75
2018-04-22T12:18:27.768Z,31.24
2018-04-22T12:21:31.060Z,30.28
2018-04-22T12:24:35.430Z,30.72
2018-04-22T12:27:38.592Z,31.46
2018-04-22T12:30:41.951Z,31.07
2018-04-22T12:33:45.092Z,31.43
2018-04-22T12:36:48.443Z,30.73
2018-04-22T12:39:51.744Z,30.29
2018-04-22T12:42:55.021Z,31.45
2018-04-22T12:45:58.397Z,31.56
2018-04-22T12:49:01.665Z,29.56
2018-04-22T12:52:05.439Z,29.65
2018-04-22T12:55:08.659Z,30.04
2018-04-22T12:58:11.918Z,28.72
2018-04-22T13:01:15.321Z,26.25
2018-04-22T13:04:18.617Z,26.15
2018-04-22T13:07:21.913Z,24.37
2018-04-22T13:10:25.216Z,23.58
2018-04-22T13:13:28.705Z,23.05
2018-04-22T13:16:32.047Z,23.64
2018-04-22T13:19:36.491Z,21.86
2018-04-22T13:22:39.776Z,22.83
2018-04-22T13:25:43.115Z,22.96
2018-04-22T13:28:46.356Z,22.90
2018-04-22T13:31:50.763Z,23.79
2018-04-22T13:34:54.455Z,22.40
2018-04-22T13:37:58.185Z,23.49
2018-04-22T13:41:01.572Z,24.54
2018-04-22T13:44:05.810Z,24.05
2018-04-22T13:47:09.068Z,23.81
2018-04-22T13:50:12.331Z,22.45
2018-04-22T13:53:15.643Z,23.97
2018-04-22T13:56:18.959Z,23.87
2018-04-22T13:59:22.276Z,24.20
2018-04-22T14:02:25.609Z,25.16
2018-04-22T14:05:28.988Z,24.18
2018-04-22T14:08:32.200Z,24.44
2018-04-22T14:11:36.157Z,23.80
2018-04-22T14:14:39.420Z,23.91
2018-04-22T14:17:42.795Z,24.23
2018-04-22T14:20:46.008Z,24.16
2018-04-22T14:23:49.375Z,25.13
2018-04-22T14:26:52.659Z,24.51
2018-04-22T14:29:55.976Z,24.92
2018-04-22T14:32:59.376Z,24.57
2018-04-22T14:36:02.768Z,24.76
2018-04-22T14:39:07.924Z,25.38
2018-04-22T14:42:11.319Z,25.32
2018-04-22T14:46:24.968Z,22.83
2018-04-22T14:49:28.296Z,23.70
2018-04-22T14:52:31.619Z,21.81
2018-04-22T14:55:36.553Z,23.68
2018-04-22T14:58:39.819Z,24.13
2018-04-22T15:01:43.020Z,23.22
2018-04-22T15:04:46.410Z,22.48
2018-04-22T15:07:49.881Z,22.59
2018-04-22T15:10:53.096Z,22.76
2018-04-22T15:13:57.188Z,21.91
2018-04-22T15:17:00.480Z,21.87
2018-04-22T15:20:04.876Z,22.52
2018-04-22T15:23:08.204Z,23.90
2018-04-22T15:26:11.517Z,24.27
2018-04-22T15:29:14.987Z,24.40
2018-04-22T15:32:18.396Z,24.07
2018-04-22T15:35:21.707Z,24.68
2018-04-22T15:38:25.008Z,24.92
2018-04-22T15:41:28.343Z,25.13
2018-04-22T15:44:31.668Z,25.00
2018-04-22T15:47:35.760Z,24.75
2018-04-22T15:50:39.051Z,24.97
2018-04-22T15:53:42.196Z,25.71
2018-04-22T15:56:45.448Z,24.81
2018-04-22T15:59:48.826Z,25.28
2018-04-22T16:02:52.553Z,25.97
2018-04-22T16:05:55.929Z,26.24
2018-04-22T16:09:00.728Z,25.76
2018-04-22T16:12:04.048Z,25.88
2018-04-22T16:15:07.340Z,26.76
2018-04-22T16:18:10.664Z,26.56
2018-04-22T16:21:14.215Z,25.90
2018-04-22T16:24:17.398Z,26.38
2018-04-22T16:27:20.614Z,26.65
2018-04-22T16:30:23.889Z,26.23
2018-04-22T16:33:27.264Z,26.45
2018-04-22T16:36:30.598Z,26.44
2018-04-22T16:39:33.961Z,25.17
2018-04-22T16:42:37.329Z,25.18
2018-04-22T16:45:40.475Z,25.98
2018-04-22T16:48:43.772Z,26.59
2018-04-22T16:51:47.104Z,26.13
2018-04-22T16:54:50.420Z,26.38
2018-04-22T16:57:53.655Z,26.90
2018-04-22T17:00:56.865Z,27.86
2018-04-22T17:04:01.620Z,27.61
2018-04-22T17:07:05.244Z,26.01
2018-04-22T17:10:08.659Z,26.75
2018-04-22T17:13:11.975Z,27.48
2018-04-22T17:16:15.180Z,27.06
2018-04-22T17:19:18.471Z,27.66
2018-04-22T17:22:21.872Z,26.88
2018-04-22T17:25:25.352Z,26.96
2018-04-22T17:28:28.732Z,25.96
2018-04-22T17:31:33.147Z,26.87
2018-04-22T17:34:36.350Z,26.93
2018-04-22T17:37:40.703Z,26.84
2018-04-22T17:40:44.078Z,26.73
2018-04-22T17:43:47.560Z,27.05
2018-04-22T17:46:50.831Z,27.05
2018-04-22T17:49:54.151Z,26.49
2018-04-22T17:52:57.541Z,26.71
2018-04-22T17:56:00.776Z,27.20
2018-04-22T17:59:04.103Z,26.68
2018-04-22T18:02:08.061Z,26.71
2018-04-22T18:05:12.288Z,26.59
2018-04-22T18:08:15.609Z,26.54
2018-04-22T18:11:19.933Z,25.61
2018-04-22T18:14:23.315Z,25.52
2018-04-22T18:17:26.607Z,25.73
2018-04-22T18:20:29.916Z,25.66
2018-04-22T18:23:33.316Z,25.11
2018-04-22T18:26:36.608Z,25.82
2018-04-22T18:29:41.168Z,25.63
2018-04-22T18:32:44.551Z,25.75
2018-04-22T18:35:47.755Z,26.06
2018-04-22T18:38:51.144Z,26.84
2018-04-22T18:41:54.373Z,27.00
2018-04-22T18:44:57.664Z,28.35
2018-04-22T18:48:01.024Z,29.23
2018-04-22T18:51:04.250Z,30.16
2018-04-22T18:54:09.682Z,30.93
2018-04-22T18:57:12.959Z,30.92
2018-04-22T19:00:16.371Z,31.26
2018-04-22T19:03:19.684Z,31.95
2018-04-22T19:06:22.954Z,31.88
2018-04-22T19:09:26.367Z,32.45
2018-04-22T19:12:29.612Z,32.65
2018-04-22T19:15:33.845Z,33.66
2018-04-22T19:18:37.183Z,33.90
2018-04-22T19:21:41.192Z,34.57
2018-04-22T19:24:44.567Z,34.35
2018-04-22T19:27:47.874Z,34.33
2018-04-22T19:30:51.121Z,34.42
2018-04-22T19:33:54.473Z,34.02
2018-04-22T19:36:57.980Z,34.79
2018-04-22T19:40:01.203Z,35.02
2018-04-22T19:43:04.526Z,35.60
2018-04-22T19:46:08.829Z,36.22
2018-04-22T19:49:12.146Z,36.30
2018-04-22T19:52:15.421Z,36.58
2018-04-22T19:55:18.791Z,37.83
2018-04-22T19:58:22.015Z,38.53
2018-04-22T20:01:25.318Z,38.20
2018-04-22T20:04:28.689Z,39.08
2018-04-22T20:07:31.953Z,39.59
2018-04-22T20:10:35.104Z,38.88
2018-04-22T20:13:39.007Z,39.31
2018-04-22T20:16:42.340Z,40.11
2018-04-22T20:19:45.653Z,40.01
2018-04-22T20:22:49.395Z,39.98
2018-04-22T20:25:52.700Z,39.78
2018-04-22T20:28:56.080Z,38.57
2018-04-22T20:31:59.358Z,39.74
2018-04-22T20:35:02.630Z,39.94
2018-04-22T20:38:05.981Z,40.43
2018-04-22T20:41:09.308Z,40.23
2018-04-22T20:44:12.610Z,40.19
2018-04-22T20:47:16.916Z,41.25
2018-04-22T20:50:20.295Z,40.84
2018-04-22T20:53:23.662Z,41.27
2018-04-22T20:56:26.985Z,40.46
2018-04-22T20:59:30.364Z,38.49
2018-04-22T21:02:33.806Z,39.99
2018-04-22T21:05:37.008Z,41.19
2018-04-22T21:08:40.305Z,40.03
2018-04-22T21:11:43.704Z,40.62
2018-04-22T21:14:47.945Z,40.27
2018-04-22T21:17:51.304Z,40.12
2018-04-22T21:20:54.567Z,41.34
2018-04-22T21:23:57.902Z,40.90
2018-04-22T21:27:05.069Z,41.00
2018-04-22T21:30:08.373Z,41.60
2018-04-22T21:33:11.619Z,42.80
2018-04-22T21:36:15.367Z,42.41
2018-04-22T21:39:18.693Z,43.42
2018-04-22T21:42:21.915Z,43.46
2018-04-22T21:45:25.235Z,42.47
2018-04-22T21:48:28.487Z,42.63
2018-04-22T21:51:31.649Z,40.74
2018-04-22T21:54:35.068Z,39.48
2018-04-22T21:57:38.344Z,38.37
2018-04-22T22:00:41.666Z,38.98
2018-04-22T22:03:45.348Z,38.40
2018-04-22T22:06:48.681Z,38.41
2018-04-22T22:09:51.921Z,38.40
2018-04-22T22:12:55.377Z,39.13
2018-04-22T22:15:58.565Z,40.23
2018-04-22T22:19:01.857Z,41.27
2018-04-22T22:22:05.272Z,41.65
2018-04-22T22:25:08.570Z,42.47
2018-04-22T22:28:11.858Z,42.55
2018-04-22T22:31:16.024Z,41.38
2018-04-22T22:34:19.308Z,41.65
2018-04-22T22:37:22.496Z,42.23
2018-04-22T22:40:25.819Z,42.09
2018-04-22T22:43:32.940Z,41.46
2018-04-22T22:46:36.180Z,41.52
2018-04-22T22:49:39.579Z,41.38
2018-04-22T22:52:42.958Z,41.04
2018-04-22T22:55:47.400Z,40.58
2018-04-22T22:58:50.781Z,40.94
2018-04-22T23:01:54.125Z,40.85
2018-04-22T23:04:57.397Z,41.06
2018-04-22T23:08:00.707Z,41.01
2018-04-22T23:11:04.071Z,40.33
2018-04-22T23:14:07.367Z,39.82
2018-04-22T23:17:10.793Z,39.85
2018-04-22T23:20:14.073Z,39.86
2018-04-22T23:23:18.617Z,40.98
2018-04-22T23:26:22.001Z,41.32
2018-04-22T23:29:25.383Z,41.40
2018-04-22T23:32:29.749Z,40.69
2018-04-22T23:35:32.988Z,40.01
2018-04-22T23:38:36.404Z,39.83
2018-04-22T23:41:39.723Z,39.49
2018-04-22T23:44:42.876Z,39.99
2018-04-22T23:47:47.371Z,39.29
2018-04-22T23:50:50.716Z,39.60
2018-04-22T23:53:54.140Z,39.88
2018-04-22T23:56:57.540Z,40.21
